Time;durP1;ratioP1;P1;durP2;ratioP2;P2;SDS_P1;SDS_P2;PMS_P1;PMS_P2;Temp;Humidity;BMP_temperature;BMP_pressure;BME280_temperature;BME280_humidity;BME280_pressure;Samples;Min_cycle;Max_cycle;Signal;HPM_P1;HPM_P2
2023/09/17 00:00:46;;;;;;;9.80;6.93;;;;;;;;;;2593999;22;20007;-90
2023/09/17 00:01:47;;;;;;;9.82;6.53;;;;;;;;;;2573735;23;20026;-91
2023/09/17 00:02:47;;;;;;;9.43;7.18;;;;;;;;;;2580659;22;20004;-90
2023/09/17 00:03:48;;;;;;;9.40;6.80;;;;;;;;;;2580799;22;20000;-91
2023/09/17 00:04:48;;;;;;;8.02;6.55;;;;;;;;;;2568243;23;20064;-91
2023/09/17 00:05:49;;;;;;;9.68;6.82;;;;;;;;;;2575955;23;20016;-91
2023/09/17 00:06:50;;;;;;;11.98;7.57;;;;;;;;;;2587412;22;20012;-91
2023/09/17 00:07:50;;;;;;;10.57;7.25;;;;;;;;;;2580915;23;20015;-91
2023/09/17 00:08:51;;;;;;;9.77;6.85;;;;;;;;;;2568486;23;20487;-91
2023/09/17 00:09:51;;;;;;;11.23;7.32;;;;;;;;;;2568389;23;20406;-91
2023/09/17 00:10:52;;;;;;;10.95;7.03;;;;;;;;;;2582527;22;20007;-91
2023/09/17 00:11:52;;;;;;;9.57;6.25;;;;;;;;;;2580780;22;20361;-91
2023/09/17 00:12:54;;;;;;;8.63;6.70;;;;;;;;;;2568327;23;20541;-91
2023/09/17 00:13:55;;;;;;;10.75;7.45;;;;;;;;;;2580628;22;20012;-91
2023/09/17 00:14:55;;;;;;;9.77;7.35;;;;;;;;;;2582097;22;20533;-92
2023/09/17 00:15:56;;;;;;;9.20;6.82;;;;;;;;;;2580799;22;20091;-91
2023/09/17 00:16:57;;;;;;;13.07;8.13;;;;;;;;;;2568363;23;20442;-91
2023/09/17 00:17:57;;;;;;;11.35;7.43;;;;;;;;;;2574389;22;20015;-91
2023/09/17 00:18:58;;;;;;;8.80;7.47;;;;;;;;;;2579860;22;20000;-92
2023/09/17 00:19:58;;;;;;;10.27;7.28;;;;;;;;;;2582037;22;20473;-91
2023/09/17 00:20:59;;;;;;;10.25;7.30;;;;;;;;;;2590657;22;20006;-91
2023/09/17 00:22:01;;;;;;;10.95;6.97;;;;;;;;;;2580742;23;20485;-91
2023/09/17 00:23:01;;;;;;;12.48;7.43;;;;;;;;;;2580883;22;20349;-91
2023/09/17 00:24:02;;;;;;;9.48;7.47;;;;;;;;;;2593841;22;20039;-91
2023/09/17 00:25:03;;;;;;;9.75;6.85;;;;;;;;;;2593514;22;20051;-91
2023/09/17 00:26:04;;;;;;;9.82;6.88;;;;;;;;;;2580996;22;20011;-91
2023/09/17 00:27:04;;;;;;;10.30;7.07;;;;;;;;;;2580577;23;20382;-91
2023/09/17 00:28:05;;;;;;;9.50;7.00;;;;;;;;;;2580962;23;20039;-91
2023/09/17 00:29:05;;;;;;;11.15;7.30;;;;;;;;;;2580517;23;20027;-92
2023/09/17 00:30:09;;;;;;;10.20;7.97;;;;;;;;;;2580822;23;20019;-91
2023/09/17 00:31:12;;;;;;;10.70;7.30;;;;;;;;;;2581423;22;20004;-91
2023/09/17 00:32:13;;;;;;;10.18;7.30;;;;;;;;;;2593717;22;20032;-92
2023/09/17 00:33:13;;;;;;;10.88;7.47;;;;;;;;;;2593333;22;20474;-91
2023/09/17 00:34:13;;;;;;;9.95;7.55;;;;;;;;;;2580867;23;20032;-91
2023/09/17 00:35:14;;;;;;;10.77;7.47;;;;;;;;;;2597613;22;20326;-91
2023/09/17 00:36:14;;;;;;;11.38;8.05;;;;;;;;;;2598338;22;19999;-91
2023/09/17 00:37:15;;;;;;;10.52;7.22;;;;;;;;;;2593459;22;20427;-91
2023/09/17 00:38:15;;;;;;;8.75;7.78;;;;;;;;;;2584588;23;20313;-91
2023/09/17 00:39:16;;;;;;;10.05;8.00;;;;;;;;;;2597548;22;19996;-91
2023/09/17 00:40:20;;;;;;;11.35;7.80;;;;;;;;;;2606065;22;19999;-91
2023/09/17 00:41:20;;;;;;;11.48;7.63;;;;;;;;;;2593250;22;20031;-91
2023/09/17 00:42:20;;;;;;;7.80;6.82;;;;;;;;;;2580573;23;20400;-91
2023/09/17 00:43:22;;;;;;;14.40;8.38;;;;;;;;;;2593133;22;19999;-91
2023/09/17 00:44:32;;;;;;;9.84;6.68;;;;;;;;;;2594473;22;10122150;-92
2023/09/17 00:45:33;;;;;;;9.93;7.28;;;;;;;;;;2593229;22;20251;-91
2023/09/17 00:46:34;;;;;;;11.55;7.00;;;;;;;;;;2580817;23;20012;-91
2023/09/17 00:47:34;;;;;;;12.95;7.80;;;;;;;;;;2596205;22;20000;-92
2023/09/17 00:48:35;;;;;;;10.63;7.85;;;;;;;;;;2593226;22;20460;-91
2023/09/17 00:49:35;;;;;;;9.27;7.28;;;;;;;;;;2593330;22;20035;-91
2023/09/17 00:50:36;;;;;;;12.18;7.82;;;;;;;;;;2596137;22;20075;-91
2023/09/17 00:51:37;;;;;;;12.35;8.13;;;;;;;;;;2593369;22;20420;-92
2023/09/17 00:52:38;;;;;;;10.45;7.07;;;;;;;;;;2595858;22;20073;-91
2023/09/17 00:53:40;;;;;;;10.18;8.05;;;;;;;;;;2593283;22;19999;-91
2023/09/17 00:54:40;;;;;;;17.25;7.60;;;;;;;;;;2595686;22;20444;-91
2023/09/17 00:55:41;;;;;;;10.55;7.07;;;;;;;;;;2593396;22;20007;-91
2023/09/17 00:56:41;;;;;;;8.75;6.78;;;;;;;;;;2595421;22;20004;-92
2023/09/17 00:57:45;;;;;;;10.00;7.13;;;;;;;;;;2593397;22;20418;-91
2023/09/17 00:58:45;;;;;;;12.52;7.82;;;;;;;;;;2593298;22;20004;-91
2023/09/17 00:59:49;;;;;;;8.07;6.60;;;;;;;;;;2593113;22;20000;-92
2023/09/17 01:00:50;;;;;;;8.70;7.03;;;;;;;;;;2593366;22;20007;-91
2023/09/17 01:01:51;;;;;;;12.63;7.40;;;;;;;;;;2580954;22;20008;-91
2023/09/17 01:02:52;;;;;;;9.55;6.70;;;;;;;;;;2593510;22;20520;-91
2023/09/17 01:03:53;;;;;;;10.77;7.35;;;;;;;;;;2593161;22;19995;-91
2023/09/17 01:04:53;;;;;;;9.70;6.72;;;;;;;;;;2593354;22;20004;-92
2023/09/17 01:05:56;;;;;;;8.93;6.45;;;;;;;;;;2593271;22;20007;-91
2023/09/17 01:06:58;;;;;;;8.93;7.22;;;;;;;;;;2593723;22;20015;-91
2023/09/17 01:07:59;;;;;;;11.25;6.88;;;;;;;;;;2606085;22;20015;-92
2023/09/17 01:08:59;;;;;;;8.93;6.32;;;;;;;;;;2580711;23;20633;-90
2023/09/17 01:10:00;;;;;;;9.88;6.28;;;;;;;;;;2580713;23;20004;-92
2023/09/17 01:11:02;;;;;;;9.00;6.25;;;;;;;;;;2594263;22;20062;-91
2023/09/17 01:12:03;;;;;;;10.27;6.95;;;;;;;;;;2595037;22;20466;-91
2023/09/17 01:13:04;;;;;;;9.57;6.93;;;;;;;;;;2593107;22;20004;-91
2023/09/17 01:14:12;;;;;;;10.68;7.40;;;;;;;;;;2593352;22;20047;-91
2023/09/17 01:15:12;;;;;;;8.70;6.30;;;;;;;;;;2593556;22;20668;-91
2023/09/17 01:16:13;;;;;;;9.45;7.03;;;;;;;;;;2606121;22;19999;-91
2023/09/17 01:17:13;;;;;;;12.02;7.38;;;;;;;;;;2606081;22;20003;-91
2023/09/17 01:18:15;;;;;;;8.43;6.57;;;;;;;;;;2580465;23;20341;-91
2023/09/17 01:19:23;;;;;;;9.27;6.82;;;;;;;;;;2580793;22;20020;-91
2023/09/17 01:20:29;;;;;;;10.45;7.15;;;;;;;;;;2593279;22;20006;-91
2023/09/17 01:21:41;;;;;;;9.23;7.10;;;;;;;;;;2593251;22;20485;-91
2023/09/17 01:22:45;;;;;;;8.45;6.28;;;;;;;;;;2593113;22;20008;-91
2023/09/17 01:24:01;;;;;;;10.10;6.80;;;;;;;;;;2595257;22;19999;-91
2023/09/17 01:25:25;;;;;;;9.35;6.35;;;;;;;;;;2606108;22;20082;-91
2023/09/17 01:26:29;;;;;;;9.27;6.22;;;;;;;;;;2601180;22;20065;-91
2023/09/17 01:27:32;;;;;;;10.35;6.75;;;;;;;;;;2593283;22;20123;-91
2023/09/17 01:28:33;;;;;;;9.10;6.30;;;;;;;;;;2580848;22;20018;-91
2023/09/17 01:29:39;;;;;;;10.32;6.82;;;;;;;;;;2580697;22;20016;-92
2023/09/17 01:30:41;;;;;;;8.45;6.88;;;;;;;;;;2581957;22;20004;-91
2023/09/17 01:31:42;;;;;;;9.43;6.97;;;;;;;;;;2596274;22;20073;-91
2023/09/17 01:32:43;;;;;;;11.82;8.18;;;;;;;;;;2597306;22;20100;-91
2023/09/17 01:33:43;;;;;;;11.05;6.88;;;;;;;;;;2606617;22;20086;-92
2023/09/17 01:34:49;;;;;;;8.68;7.07;;;;;;;;;;2594219;22;20027;-91
2023/09/17 01:36:11;;;;;;;11.50;7.45;;;;;;;;;;2584169;22;20026;-91
2023/09/17 01:37:23;;;;;;;8.98;6.60;;;;;;;;;;2594518;22;20002;-91
2023/09/17 01:38:32;;;;;;;10.00;6.78;;;;;;;;;;2594077;22;20010;-91
2023/09/17 01:39:41;;;;;;;10.00;6.60;;;;;;;;;;2597210;22;19996;-92
2023/09/17 01:40:43;;;;;;;10.80;6.55;;;;;;;;;;2594135;22;20004;-91
2023/09/17 01:41:44;;;;;;;10.75;7.55;;;;;;;;;;2581549;22;20004;-91
2023/09/17 01:42:47;;;;;;;10.45;7.68;;;;;;;;;;2594170;22;20003;-91
2023/09/17 01:43:48;;;;;;;11.13;7.05;;;;;;;;;;2595944;22;20006;-91
2023/09/17 01:44:48;;;;;;;10.30;6.72;;;;;;;;;;2594082;22;20077;-92
2023/09/17 01:45:50;;;;;;;12.68;7.45;;;;;;;;;;2581460;22;20011;-91
2023/09/17 01:46:51;;;;;;;10.48;7.63;;;;;;;;;;2595693;22;20079;-91
2023/09/17 01:47:52;;;;;;;11.98;8.07;;;;;;;;;;2606851;22;20007;-91
2023/09/17 01:48:54;;;;;;;10.63;7.78;;;;;;;;;;2608421;22;20056;-92
2023/09/17 01:49:57;;;;;;;10.63;7.22;;;;;;;;;;2594072;22;20007;-91
2023/09/17 01:50:59;;;;;;;11.30;8.65;;;;;;;;;;2581926;22;20465;-91
2023/09/17 01:52:00;;;;;;;12.52;7.20;;;;;;;;;;2594569;22;20004;-90
2023/09/17 01:53:01;;;;;;;12.32;9.18;;;;;;;;;;2594281;22;20011;-91
2023/09/17 01:54:01;;;;;;;12.05;8.27;;;;;;;;;;2581386;23;20016;-92
2023/09/17 01:55:02;;;;;;;10.32;8.10;;;;;;;;;;2593857;22;20035;-91
2023/09/17 01:56:04;;;;;;;10.75;7.75;;;;;;;;;;2581882;22;20059;-91
2023/09/17 01:57:04;;;;;;;14.13;8.90;;;;;;;;;;2594915;22;20015;-92
2023/09/17 01:58:05;;;;;;;13.50;8.27;;;;;;;;;;2593898;22;20007;-91
2023/09/17 01:59:06;;;;;;;11.13;7.93;;;;;;;;;;2594040;22;20008;-92
2023/09/17 02:00:40;;;;;;;11.50;7.63;;;;;;;;;;2607530;22;20386;-91
2023/09/17 02:01:34;;;;;;;10.52;7.28;;;;;;;;;;2591623;22;20467;-91
2023/09/17 02:02:34;;;;;;;12.52;8.55;;;;;;;;;;2606722;22;20183;-91
2023/09/17 02:03:34;;;;;;;10.43;8.07;;;;;;;;;;2609622;22;20007;-91
2023/09/17 02:04:35;;;;;;;12.57;7.40;;;;;;;;;;2593936;22;20119;-91
2023/09/17 02:05:35;;;;;;;11.63;8.30;;;;;;;;;;2593998;22;20011;-91
2023/09/17 02:06:36;;;;;;;12.73;8.07;;;;;;;;;;2594126;22;20445;-91
2023/09/17 02:07:37;;;;;;;11.25;7.68;;;;;;;;;;2593998;22;20104;-91
2023/09/17 02:08:37;;;;;;;12.13;7.93;;;;;;;;;;2606853;22;20344;-91
2023/09/17 02:09:38;;;;;;;14.48;8.10;;;;;;;;;;2596754;22;20014;-91
2023/09/17 02:10:38;;;;;;;12.70;8.48;;;;;;;;;;2593976;22;20055;-91
2023/09/17 02:11:39;;;;;;;12.35;7.72;;;;;;;;;;2597156;22;20507;-91
2023/09/17 02:12:39;;;;;;;10.05;8.07;;;;;;;;;;2599766;22;19999;-92
2023/09/17 02:13:40;;;;;;;10.23;7.25;;;;;;;;;;2597304;22;20004;-90
2023/09/17 02:14:41;;;;;;;11.77;8.27;;;;;;;;;;2589108;23;20027;-92
2023/09/17 02:15:42;;;;;;;11.93;8.30;;;;;;;;;;2591094;22;20011;-91
2023/09/17 02:16:43;;;;;;;13.63;8.00;;;;;;;;;;2605688;22;19999;-91
2023/09/17 02:17:44;;;;;;;12.30;8.27;;;;;;;;;;2608201;22;20007;-91
2023/09/17 02:18:44;;;;;;;12.25;8.48;;;;;;;;;;2609185;22;20231;-91
2023/09/17 02:19:44;;;;;;;12.60;8.57;;;;;;;;;;2594192;22;20008;-92
2023/09/17 02:20:45;;;;;;;11.73;8.30;;;;;;;;;;2581639;23;20034;-92
2023/09/17 02:21:45;;;;;;;13.15;8.35;;;;;;;;;;2581330;23;20123;-91
2023/09/17 02:22:46;;;;;;;13.20;8.65;;;;;;;;;;2581270;23;20453;-91
2023/09/17 02:23:47;;;;;;;13.65;9.27;;;;;;;;;;2581499;23;20059;-91
2023/09/17 02:24:48;;;;;;;12.07;8.98;;;;;;;;;;2593977;22;20008;-91
2023/09/17 02:25:49;;;;;;;13.45;9.25;;;;;;;;;;2596082;22;20273;-92
2023/09/17 02:26:49;;;;;;;13.63;9.20;;;;;;;;;;2593972;22;20090;-91
2023/09/17 02:27:50;;;;;;;13.00;8.82;;;;;;;;;;2593737;22;20003;-91
2023/09/17 02:28:50;;;;;;;13.95;8.35;;;;;;;;;;2581375;23;20008;-91
2023/09/17 02:29:50;;;;;;;13.32;8.32;;;;;;;;;;2594315;22;20011;-91
2023/09/17 02:30:51;;;;;;;11.75;8.43;;;;;;;;;;2581331;23;20000;-91
2023/09/17 02:31:51;;;;;;;12.70;8.13;;;;;;;;;;2593889;22;20336;-91
2023/09/17 02:32:52;;;;;;;11.75;8.85;;;;;;;;;;2594369;22;20054;-92
2023/09/17 02:33:52;;;;;;;11.10;7.72;;;;;;;;;;2595787;22;20031;-91
2023/09/17 02:34:52;;;;;;;12.48;9.15;;;;;;;;;;2593989;22;20035;-91
2023/09/17 02:35:53;;;;;;;12.35;9.00;;;;;;;;;;2581382;23;20036;-91
2023/09/17 02:36:54;;;;;;;12.32;9.02;;;;;;;;;;2593995;22;20433;-91
2023/09/17 02:37:54;;;;;;;14.80;8.85;;;;;;;;;;2595495;22;20010;-91
2023/09/17 02:38:54;;;;;;;11.50;8.70;;;;;;;;;;2594111;22;20027;-91
2023/09/17 02:39:55;;;;;;;13.57;8.88;;;;;;;;;;2593826;22;20097;-91
2023/09/17 02:40:55;;;;;;;13.50;8.20;;;;;;;;;;2594006;22;20432;-91
2023/09/17 02:41:56;;;;;;;11.65;8.95;;;;;;;;;;2595285;22;20011;-91
2023/09/17 02:42:56;;;;;;;10.63;8.55;;;;;;;;;;2594187;22;20517;-91
2023/09/17 02:43:59;;;;;;;13.18;9.02;;;;;;;;;;2594193;22;19999;-91
2023/09/17 02:44:59;;;;;;;14.07;9.45;;;;;;;;;;2581763;22;20000;-91
2023/09/17 02:46:00;;;;;;;11.95;9.07;;;;;;;;;;2595102;22;20067;-91
2023/09/17 02:47:02;;;;;;;16.40;9.88;;;;;;;;;;2594239;22;20007;-92
2023/09/17 02:48:03;;;;;;;13.05;8.70;;;;;;;;;;2581870;22;20150;-91
2023/09/17 02:49:03;;;;;;;13.30;9.45;;;;;;;;;;2581436;23;20000;-91
2023/09/17 02:50:04;;;;;;;13.50;9.10;;;;;;;;;;2581547;23;20091;-91
2023/09/17 02:51:05;;;;;;;12.05;7.93;;;;;;;;;;2594954;22;20448;-91
2023/09/17 02:52:06;;;;;;;12.13;8.75;;;;;;;;;;2595840;22;20003;-91
2023/09/17 02:53:07;;;;;;;12.45;7.88;;;;;;;;;;2595428;22;20000;-92
2023/09/17 02:54:08;;;;;;;13.27;9.38;;;;;;;;;;2593870;22;20008;-91
2023/09/17 02:55:08;;;;;;;12.13;9.50;;;;;;;;;;2594393;22;20023;-91
2023/09/17 02:56:08;;;;;;;14.75;9.05;;;;;;;;;;2594073;22;20050;-91
2023/09/17 02:57:09;;;;;;;13.18;9.45;;;;;;;;;;2594030;22;20082;-91
2023/09/17 02:58:09;;;;;;;15.60;10.20;;;;;;;;;;2595259;22;20020;-91
2023/09/17 02:59:11;;;;;;;12.90;9.13;;;;;;;;;;2606723;22;20470;-92
2023/09/17 03:00:13;;;;;;;13.68;9.18;;;;;;;;;;2593819;22;20003;-91
2023/09/17 03:01:19;;;;;;;13.45;9.07;;;;;;;;;;2593713;22;20467;-91
2023/09/17 03:02:19;;;;;;;13.75;9.57;;;;;;;;;;2597805;22;19999;-91
2023/09/17 03:03:20;;;;;;;13.10;9.45;;;;;;;;;;2593628;22;19995;-92
2023/09/17 03:04:20;;;;;;;12.27;9.45;;;;;;;;;;2580955;23;20404;-92
2023/09/17 03:05:20;;;;;;;12.93;9.32;;;;;;;;;;2581004;23;20028;-91
2023/09/17 03:06:21;;;;;;;16.48;10.15;;;;;;;;;;2581155;23;20019;-91
2023/09/17 03:07:21;;;;;;;17.98;10.50;;;;;;;;;;2597816;22;20022;-92
2023/09/17 03:08:22;;;;;;;15.07;11.07;;;;;;;;;;2593665;22;20007;-91
2023/09/17 03:09:25;;;;;;;14.93;10.02;;;;;;;;;;2597594;22;19996;-91
2023/09/17 03:10:26;;;;;;;13.82;11.32;;;;;;;;;;2597770;22;20026;-92
2023/09/17 03:11:29;;;;;;;15.35;9.52;;;;;;;;;;2597966;22;20063;-91
2023/09/17 03:12:30;;;;;;;16.83;10.20;;;;;;;;;;2593354;22;20070;-91
2023/09/17 03:13:31;;;;;;;12.95;9.18;;;;;;;;;;2596902;22;20421;-91
2023/09/17 03:14:31;;;;;;;15.70;10.48;;;;;;;;;;2593578;22;20003;-91
2023/09/17 03:15:31;;;;;;;14.77;10.40;;;;;;;;;;2577149;23;20287;-91
2023/09/17 03:16:33;;;;;;;15.50;10.75;;;;;;;;;;2589675;22;20018;-91
2023/09/17 03:17:37;;;;;;;15.77;11.35;;;;;;;;;;2580965;22;20023;-91
2023/09/17 03:18:37;;;;;;;14.60;10.95;;;;;;;;;;2581620;22;20000;-91
2023/09/17 03:19:38;;;;;;;16.02;10.98;;;;;;;;;;2581175;22;20373;-92
2023/09/17 03:20:39;;;;;;;16.40;11.57;;;;;;;;;;2581021;22;20008;-91
2023/09/17 03:21:40;;;;;;;18.38;12.38;;;;;;;;;;2581077;22;20038;-92
2023/09/17 03:22:41;;;;;;;17.42;11.88;;;;;;;;;;2581092;22;20012;-92
2023/09/17 03:23:41;;;;;;;16.90;11.38;;;;;;;;;;2580961;23;20095;-92
2023/09/17 03:24:42;;;;;;;15.63;10.45;;;;;;;;;;2581212;22;20008;-92
2023/09/17 03:25:42;;;;;;;16.00;10.88;;;;;;;;;;2581006;22;20011;-92
2023/09/17 03:26:43;;;;;;;15.38;9.73;;;;;;;;;;2568472;23;20441;-90
2023/09/17 03:27:43;;;;;;;17.38;10.45;;;;;;;;;;2568400;23;20004;-91
2023/09/17 03:28:44;;;;;;;13.10;9.80;;;;;;;;;;2574929;23;20008;-91
2023/09/17 03:29:44;;;;;;;12.25;9.38;;;;;;;;;;2574641;23;20060;-90
2023/09/17 03:31:00;;;;;;;12.93;9.25;;;;;;;;;;2578781;23;20008;-91
2023/09/17 03:32:00;;;;;;;15.95;9.95;;;;;;;;;;2603213;22;20424;-91
2023/09/17 03:33:02;;;;;;;12.90;10.18;;;;;;;;;;2601246;22;20003;-90
2023/09/17 03:34:03;;;;;;;18.88;9.98;;;;;;;;;;2598839;22;20002;-92
2023/09/17 03:35:05;;;;;;;14.98;10.18;;;;;;;;;;2568838;23;20092;-91
2023/09/17 03:36:06;;;;;;;16.15;10.48;;;;;;;;;;2582137;22;20008;-92
2023/09/17 03:37:07;;;;;;;14.77;10.20;;;;;;;;;;2581030;22;20207;-91
2023/09/17 03:38:07;;;;;;;17.63;10.77;;;;;;;;;;2568426;23;20015;-91
2023/09/17 03:39:12;;;;;;;14.38;9.82;;;;;;;;;;2581348;22;20420;-91
2023/09/17 03:40:14;;;;;;;17.35;10.15;;;;;;;;;;2582190;22;20004;-91
2023/09/17 03:41:14;;;;;;;14.50;10.10;;;;;;;;;;2598758;22;19996;-91
2023/09/17 03:42:15;;;;;;;14.32;10.02;;;;;;;;;;2598753;22;20436;-92
2023/09/17 03:43:15;;;;;;;14.68;10.98;;;;;;;;;;2581351;22;20003;-92
2023/09/17 03:44:16;;;;;;;18.95;10.30;;;;;;;;;;2568462;23;19993;-91
2023/09/17 03:45:16;;;;;;;15.95;10.38;;;;;;;;;;2145510;22;10102353;-91
2023/09/17 03:46:17;;;;;;;18.08;11.57;;;;;;;;;;2581094;22;20000;-92
2023/09/17 03:47:17;;;;;;;14.25;10.30;;;;;;;;;;2568541;23;20469;-91
2023/09/17 03:48:17;;;;;;;16.27;10.00;;;;;;;;;;2581009;22;20095;-91
2023/09/17 03:49:23;;;;;;;19.83;10.45;;;;;;;;;;2568432;23;20378;-92
2023/09/17 03:50:23;;;;;;;13.57;10.05;;;;;;;;;;2569363;23;19997;-91
2023/09/17 03:51:24;;;;;;;14.50;9.45;;;;;;;;;;2568400;23;20020;-90
2023/09/17 03:52:26;;;;;;;16.70;10.02;;;;;;;;;;2584493;22;20024;-91
2023/09/17 03:53:28;;;;;;;13.18;9.60;;;;;;;;;;2593459;22;19992;-92
2023/09/17 03:54:28;;;;;;;11.93;9.90;;;;;;;;;;2580669;22;20000;-91
2023/09/17 03:55:29;;;;;;;14.15;10.40;;;;;;;;;;2568408;23;19996;-92
2023/09/17 03:56:29;;;;;;;16.05;10.38;;;;;;;;;;2584444;22;20071;-91
2023/09/17 03:57:30;;;;;;;13.00;10.02;;;;;;;;;;2581088;22;20428;-92
2023/09/17 03:58:30;;;;;;;13.50;9.57;;;;;;;;;;2568470;23;20439;-92
2023/09/17 03:59:31;;;;;;;14.15;10.15;;;;;;;;;;2597451;22;19988;-91
2023/09/17 04:00:31;;;;;;;14.13;10.68;;;;;;;;;;2618598;22;19986;-90
2023/09/17 04:01:32;;;;;;;15.95;11.82;;;;;;;;;;2581085;22;20015;-92
2023/09/17 04:02:34;;;;;;;14.68;10.20;;;;;;;;;;2568693;23;19992;-92
2023/09/17 04:03:36;;;;;;;15.48;10.05;;;;;;;;;;2581414;22;20015;-91
2023/09/17 04:04:36;;;;;;;18.98;11.02;;;;;;;;;;2580908;22;20398;-91
2023/09/17 04:05:37;;;;;;;14.68;11.02;;;;;;;;;;2583523;22;20082;-91
2023/09/17 04:06:38;;;;;;;16.98;11.73;;;;;;;;;;2581017;22;20071;-92
2023/09/17 04:07:41;;;;;;;16.23;11.57;;;;;;;;;;2583561;22;20004;-91
2023/09/17 04:08:41;;;;;;;16.52;11.45;;;;;;;;;;2581125;22;20095;-91
2023/09/17 04:09:42;;;;;;;17.65;11.82;;;;;;;;;;2583305;22;20004;-91
2023/09/17 04:10:43;;;;;;;17.67;12.32;;;;;;;;;;2580775;22;20412;-92
2023/09/17 04:11:43;;;;;;;19.65;12.27;;;;;;;;;;2583220;22;20000;-92
2023/09/17 04:12:45;;;;;;;17.25;11.63;;;;;;;;;;2596543;22;20030;-92
2023/09/17 04:13:45;;;;;;;21.77;13.10;;;;;;;;;;2580634;22;20459;-90
2023/09/17 04:14:45;;;;;;;19.38;12.40;;;;;;;;;;2582922;22;20047;-90
2023/09/17 04:15:46;;;;;;;22.20;13.32;;;;;;;;;;2596467;22;20003;-92
2023/09/17 04:16:46;;;;;;;23.90;13.60;;;;;;;;;;2596388;22;20388;-92
2023/09/17 04:17:52;;;;;;;20.63;13.05;;;;;;;;;;2580899;22;20004;-91
2023/09/17 04:18:52;;;;;;;19.45;13.23;;;;;;;;;;2569537;23;20055;-91
2023/09/17 04:19:52;;;;;;;19.45;13.10;;;;;;;;;;2581073;23;20086;-92
2023/09/17 04:20:53;;;;;;;21.42;14.15;;;;;;;;;;2581069;23;20477;-92
2023/09/17 04:21:53;;;;;;;20.02;14.10;;;;;;;;;;2581127;23;20008;-91
2023/09/17 04:22:54;;;;;;;25.00;13.77;;;;;;;;;;2582704;23;20425;-91
2023/09/17 04:23:54;;;;;;;20.23;14.05;;;;;;;;;;2582273;22;20035;-92
2023/09/17 04:24:55;;;;;;;21.92;14.02;;;;;;;;;;2569817;23;20460;-92
2023/09/17 04:25:56;;;;;;;22.05;14.68;;;;;;;;;;2568557;23;20008;-92
2023/09/17 04:26:56;;;;;;;20.88;15.57;;;;;;;;;;2584058;22;20004;-92
2023/09/17 04:27:57;;;;;;;23.13;13.80;;;;;;;;;;2582447;22;20016;-93
2023/09/17 04:28:58;;;;;;;24.73;14.52;;;;;;;;;;2581794;22;20087;-91
2023/09/17 04:29:59;;;;;;;24.08;15.48;;;;;;;;;;2602215;22;20402;-92
2023/09/17 04:31:01;;;;;;;21.00;14.23;;;;;;;;;;2594872;22;20023;-92
2023/09/17 04:32:05;;;;;;;21.60;14.60;;;;;;;;;;2599754;22;20046;-90
2023/09/17 04:33:05;;;;;;;23.25;13.77;;;;;;;;;;2600671;22;20578;-92
2023/09/17 04:34:06;;;;;;;22.23;15.32;;;;;;;;;;2581180;22;20016;-91
2023/09/17 04:35:15;;;;;;;22.73;15.40;;;;;;;;;;2569659;23;20397;-92
2023/09/17 04:36:17;;;;;;;21.15;14.05;;;;;;;;;;2586994;22;20008;-91
2023/09/17 04:37:19;;;;;;;24.48;14.93;;;;;;;;;;2585580;22;20392;-92
2023/09/17 04:38:20;;;;;;;23.58;16.83;;;;;;;;;;2585667;22;20134;-92
2023/09/17 04:39:20;;;;;;;23.20;14.90;;;;;;;;;;2585499;22;20337;-92
2023/09/17 04:40:24;;;;;;;24.50;15.10;;;;;;;;;;2581716;22;20071;-92
2023/09/17 04:41:26;;;;;;;26.35;16.20;;;;;;;;;;2593698;22;20459;-91
2023/09/17 04:42:28;;;;;;;25.27;14.52;;;;;;;;;;2592600;22;20480;-92
2023/09/17 04:43:29;;;;;;;22.08;15.85;;;;;;;;;;2597033;22;19980;-91
2023/09/17 04:44:29;;;;;;;22.25;16.58;;;;;;;;;;2590956;22;20003;-91
2023/09/17 04:45:47;;;;;;;22.05;14.52;;;;;;;;;;2582334;22;19996;-92
2023/09/17 04:46:51;;;;;;;23.55;13.98;;;;;;;;;;2588286;22;20008;-91
2023/09/17 04:47:51;;;;;;;20.75;14.00;;;;;;;;;;2599542;22;20000;-91
2023/09/17 04:48:52;;;;;;;19.83;14.02;;;;;;;;;;2583910;22;20042;-92
2023/09/17 04:49:53;;;;;;;22.73;14.98;;;;;;;;;;2572412;23;20004;-92
2023/09/17 04:50:53;;;;;;;23.42;15.55;;;;;;;;;;2571894;23;20009;-93
2023/09/17 04:51:54;;;;;;;17.35;12.73;;;;;;;;;;2571717;23;20011;-91
2023/09/17 04:52:55;;;;;;;22.55;12.70;;;;;;;;;;2582360;22;20417;-91
2023/09/17 04:53:55;;;;;;;18.10;13.75;;;;;;;;;;2595544;22;20019;-92
2023/09/17 04:54:56;;;;;;;17.55;11.60;;;;;;;;;;2595850;22;20075;-92
2023/09/17 04:55:56;;;;;;;19.02;15.52;;;;;;;;;;2581105;22;20040;-91
2023/09/17 04:56:57;;;;;;;17.50;15.13;;;;;;;;;;2568556;23;20016;-92
2023/09/17 04:57:57;;;;;;;18.73;13.50;;;;;;;;;;2577867;23;20004;-92
2023/09/17 04:59:00;;;;;;;19.58;15.63;;;;;;;;;;2583338;23;20497;-92
2023/09/17 05:00:10;;;;;;;22.65;15.18;;;;;;;;;;2582420;22;20469;-92
2023/09/17 05:01:12;;;;;;;20.77;12.77;;;;;;;;;;2581233;23;20468;-92
2023/09/17 05:02:16;;;;;;;20.40;16.23;;;;;;;;;;2581116;22;20008;-92
2023/09/17 05:03:16;;;;;;;21.02;13.73;;;;;;;;;;2580543;23;20027;-91
2023/09/17 05:04:17;;;;;;;21.77;16.35;;;;;;;;;;2585014;22;19984;-91
2023/09/17 05:05:19;;;;;;;21.52;17.60;;;;;;;;;;2598205;22;19995;-92
2023/09/17 05:06:19;;;;;;;20.60;17.20;;;;;;;;;;2598065;22;19996;-92
2023/09/17 05:07:20;;;;;;;22.08;16.77;;;;;;;;;;2580919;22;19996;-92
2023/09/17 05:08:20;;;;;;;22.63;17.60;;;;;;;;;;2584706;22;20042;-91
2023/09/17 05:09:22;;;;;;;22.08;17.67;;;;;;;;;;2580763;22;20005;-91
2023/09/17 05:10:22;;;;;;;22.85;18.27;;;;;;;;;;2570521;22;20523;-91
2023/09/17 05:11:23;;;;;;;22.02;18.17;;;;;;;;;;2603048;22;19994;-91
2023/09/17 05:12:23;;;;;;;20.77;18.25;;;;;;;;;;2580940;23;19992;-91
2023/09/17 05:13:23;;;;;;;22.60;18.45;;;;;;;;;;2587431;22;20465;-91
2023/09/17 05:14:24;;;;;;;18.85;16.70;;;;;;;;;;2596122;22;20000;-92
2023/09/17 05:15:24;;;;;;;18.60;12.07;;;;;;;;;;2584853;22;19992;-91
2023/09/17 05:16:25;;;;;;;21.13;16.70;;;;;;;;;;2599264;22;19995;-92
2023/09/17 05:17:26;;;;;;;22.73;17.42;;;;;;;;;;2602371;22;20055;-91
2023/09/17 05:18:26;;;;;;;18.75;16.58;;;;;;;;;;2580431;22;20043;-92
2023/09/17 05:19:28;;;;;;;22.00;16.65;;;;;;;;;;2587263;22;20002;-91
2023/09/17 05:20:29;;;;;;;19.02;15.43;;;;;;;;;;2600429;22;20046;-92
2023/09/17 05:21:31;;;;;;;23.05;17.02;;;;;;;;;;2601180;22;20088;-92
2023/09/17 05:22:34;;;;;;;19.90;16.55;;;;;;;;;;2598857;22;20053;-91
2023/09/17 05:23:35;;;;;;;21.63;17.40;;;;;;;;;;2597775;22;20418;-91
2023/09/17 05:24:35;;;;;;;20.40;15.38;;;;;;;;;;2581776;22;20008;-91
2023/09/17 05:25:36;;;;;;;20.00;16.05;;;;;;;;;;2568824;23;20005;-91
2023/09/17 05:26:36;;;;;;;18.20;15.57;;;;;;;;;;2583793;22;20032;-91
2023/09/17 05:27:37;;;;;;;23.85;16.63;;;;;;;;;;2586432;22;20007;-91
2023/09/17 05:28:39;;;;;;;22.02;16.42;;;;;;;;;;2581307;23;20050;-92
2023/09/17 05:29:41;;;;;;;21.48;16.58;;;;;;;;;;2571341;23;20011;-90
2023/09/17 05:30:41;;;;;;;18.60;15.25;;;;;;;;;;2584279;22;20062;-91
2023/09/17 05:31:42;;;;;;;19.58;16.10;;;;;;;;;;2587804;22;20008;-91
2023/09/17 05:32:43;;;;;;;16.77;14.98;;;;;;;;;;2581387;23;20004;-92
2023/09/17 05:33:43;;;;;;;20.10;15.02;;;;;;;;;;2581544;22;20095;-91
2023/09/17 05:34:44;;;;;;;17.75;15.02;;;;;;;;;;2580946;23;20357;-91
2023/09/17 05:35:44;;;;;;;18.27;15.45;;;;;;;;;;2587855;22;20075;-91
2023/09/17 05:36:45;;;;;;;18.95;15.20;;;;;;;;;;2581248;23;20058;-91
2023/09/17 05:37:45;;;;;;;18.58;14.90;;;;;;;;;;2581375;22;20008;-91
2023/09/17 05:38:46;;;;;;;18.00;14.77;;;;;;;;;;2581394;22;20028;-91
2023/09/17 05:40:07;;;;;;;19.20;14.98;;;;;;;;;;2595784;22;20000;-91
2023/09/17 05:41:07;;;;;;;14.88;12.88;;;;;;;;;;2594072;22;20008;-91
2023/09/17 05:42:07;;;;;;;18.60;14.70;;;;;;;;;;2596950;22;20082;-91
2023/09/17 05:43:08;;;;;;;18.10;14.63;;;;;;;;;;2595582;22;20448;-91
2023/09/17 05:44:09;;;;;;;16.90;13.77;;;;;;;;;;2595533;22;20070;-91
2023/09/17 05:45:09;;;;;;;17.55;13.68;;;;;;;;;;2596401;22;19996;-91
2023/09/17 05:46:10;;;;;;;16.52;13.88;;;;;;;;;;2598236;22;20022;-92
2023/09/17 05:47:10;;;;;;;22.88;15.57;;;;;;;;;;2600491;22;19996;-91
2023/09/17 05:48:12;;;;;;;17.30;14.35;;;;;;;;;;2597929;22;20014;-92
2023/09/17 05:49:13;;;;;;;15.35;13.57;;;;;;;;;;2596575;22;20100;-92
2023/09/17 05:50:13;;;;;;;18.70;13.73;;;;;;;;;;2578568;22;20469;-91
2023/09/17 05:51:13;;;;;;;16.98;13.32;;;;;;;;;;2588369;22;20024;-91
2023/09/17 05:52:16;;;;;;;16.92;13.23;;;;;;;;;;2585028;23;20002;-92
2023/09/17 05:53:17;;;;;;;14.75;12.20;;;;;;;;;;2570601;23;20011;-91
2023/09/17 05:54:18;;;;;;;14.43;12.88;;;;;;;;;;2589395;22;20508;-91
2023/09/17 05:55:21;;;;;;;17.27;12.23;;;;;;;;;;2601045;22;20050;-90
2023/09/17 05:56:22;;;;;;;16.02;12.50;;;;;;;;;;2600549;22;19991;-90
2023/09/17 05:57:23;;;;;;;15.48;12.75;;;;;;;;;;2600501;22;20022;-90
2023/09/17 05:58:23;;;;;;;15.25;12.13;;;;;;;;;;2137590;22;10361033;-90
2023/09/17 05:59:25;;;;;;;15.48;12.27;;;;;;;;;;2572439;23;20007;-89
2023/09/17 06:00:26;;;;;;;14.95;12.63;;;;;;;;;;2588746;22;20169;-91
2023/09/17 06:01:26;;;;;;;15.02;12.35;;;;;;;;;;2585178;22;19996;-91
2023/09/17 06:02:27;;;;;;;16.95;13.00;;;;;;;;;;2588150;22;19999;-90